createdAt,value
2023-02-06T00:01:27.392Z,100181.60
2023-02-06T00:03:55.352Z,100183.63
2023-02-06T00:06:30.569Z,100186.10
2023-02-06T00:08:58.756Z,100179.92
2023-02-06T00:11:27.310Z,100181.85
2023-02-06T00:13:55.178Z,100186.27
2023-02-06T00:16:42.955Z,100189.52
2023-02-06T00:19:12.083Z,100187.05
2023-02-06T00:21:40.990Z,100188.67
2023-02-06T00:24:09.308Z,100190.64
2023-02-06T00:26:37.741Z,100193.10
2023-02-06T00:29:06.072Z,100193.38
2023-02-06T00:31:34.886Z,100187.22
2023-02-06T00:34:03.957Z,100188.58
2023-02-06T00:36:33.772Z,100181.98
2023-02-06T00:39:02.050Z,100178.88
2023-02-06T00:41:30.100Z,100181.08
2023-02-06T00:43:59.009Z,100180.61
2023-02-06T00:46:27.028Z,100179.65
2023-02-06T00:48:54.944Z,100181.54
2023-02-06T00:51:24.011Z,100181.79
2023-02-06T00:53:51.889Z,100175.39
2023-02-06T00:56:20.703Z,100168.88
2023-02-06T00:58:48.836Z,100172.67
2023-02-06T01:01:17.802Z,100175.86
2023-02-06T01:03:45.857Z,100179.23
2023-02-06T01:06:13.970Z,100179.02
2023-02-06T01:08:42.002Z,100182.52
2023-02-06T01:11:15.749Z,100184.37
2023-02-06T01:13:43.676Z,100185.23
2023-02-06T01:16:14.441Z,100189.80
2023-02-06T01:18:42.413Z,100184.50
2023-02-06T01:21:11.376Z,100180.66
2023-02-06T01:23:39.570Z,100184.38
2023-02-06T01:26:12.535Z,100180.58
2023-02-06T01:28:41.682Z,100179.61
2023-02-06T01:31:23.108Z,100178.05
2023-02-06T01:33:51.340Z,100182.02
2023-02-06T01:36:20.411Z,100181.95
2023-02-06T01:38:48.492Z,100182.77
2023-02-06T01:41:17.147Z,100185.73
2023-02-06T01:43:46.984Z,100187.80
2023-02-06T01:46:14.801Z,100189.23
2023-02-06T01:48:51.709Z,100185.15
2023-02-06T01:51:21.761Z,100188.46
2023-02-06T01:53:51.738Z,100194.48
2023-02-06T01:56:19.823Z,100197.77
2023-02-06T01:58:50.594Z,100202.64
2023-02-06T02:01:19.715Z,100203.21
2023-02-06T02:03:49.614Z,100207.52
2023-02-06T02:06:19.330Z,100210.69
2023-02-06T02:08:48.302Z,100212.38
2023-02-06T02:11:29.340Z,100208.97
2023-02-06T02:13:57.801Z,100213.50
2023-02-06T02:16:51.052Z,100212.39
2023-02-06T02:20:01.019Z,100211.19
2023-02-06T02:22:37.624Z,100216.90
2023-02-06T02:25:05.839Z,100215.37
2023-02-06T02:27:56.402Z,100219.91
2023-02-06T02:30:32.755Z,100219.39
2023-02-06T02:33:34.897Z,100219.06
2023-02-06T02:36:08.372Z,100225.00
2023-02-06T02:38:39.694Z,100218.95
2023-02-06T02:41:29.458Z,100219.51
2023-02-06T02:44:12.298Z,100223.38
2023-02-06T02:46:43.033Z,100222.35
2023-02-06T02:49:22.122Z,100224.58
2023-02-06T02:51:50.495Z,100223.83
2023-02-06T02:54:18.918Z,100224.96
2023-02-06T02:56:48.042Z,100225.30
2023-02-06T02:59:27.911Z,100220.50
2023-02-06T03:01:58.402Z,100225.70
2023-02-06T03:04:30.190Z,100227.87
2023-02-06T03:07:23.347Z,100232.38
2023-02-06T03:10:06.590Z,100231.80
2023-02-06T03:12:45.780Z,100231.80
2023-02-06T03:15:23.730Z,100233.19
2023-02-06T03:18:01.346Z,100235.14
2023-02-06T03:20:30.447Z,100235.35
2023-02-06T03:22:59.098Z,100234.63
2023-02-06T03:25:36.308Z,100241.89
2023-02-06T03:28:05.488Z,100235.58
2023-02-06T03:30:33.705Z,100238.20
2023-02-06T03:33:04.420Z,100231.03
2023-02-06T03:35:35.200Z,100235.98
2023-02-06T03:38:04.864Z,100239.85
2023-02-06T03:40:34.343Z,100246.58
2023-02-06T03:43:03.533Z,100247.83
2023-02-06T03:45:38.596Z,100247.20
2023-02-06T03:48:11.191Z,100250.47
2023-02-06T03:50:40.920Z,100248.00
2023-02-06T03:53:08.992Z,100248.33
2023-02-06T03:55:37.314Z,100253.65
2023-02-06T03:58:08.156Z,100254.17
2023-02-06T04:00:36.458Z,100249.87
2023-02-06T04:03:04.459Z,100249.45
2023-02-06T04:05:33.133Z,100254.60
2023-02-06T04:08:01.494Z,100256.90
2023-02-06T04:10:29.751Z,100253.79
2023-02-06T04:12:58.242Z,100252.77
2023-02-06T04:15:26.109Z,100254.60
2023-02-06T04:18:00.319Z,100255.61
2023-02-06T04:20:29.729Z,100263.97
2023-02-06T04:22:58.393Z,100262.45
2023-02-06T04:25:26.452Z,100254.95
2023-02-06T04:27:54.521Z,100258.80
2023-02-06T04:30:23.211Z,100259.87
2023-02-06T04:32:51.289Z,100267.09
2023-02-06T04:35:19.417Z,100271.67
2023-02-06T04:37:47.391Z,100270.48
2023-02-06T04:40:15.359Z,100272.58
2023-02-06T04:42:43.933Z,100277.41
2023-02-06T04:45:11.801Z,100275.25
2023-02-06T04:47:39.892Z,100274.30
2023-02-06T04:50:08.167Z,100280.88
2023-02-06T04:52:36.719Z,100283.86
2023-02-06T04:55:05.006Z,100280.54
2023-02-06T04:57:33.908Z,100288.69
2023-02-06T05:00:01.774Z,100286.56
2023-02-06T05:02:30.060Z,100285.96
2023-02-06T05:04:57.962Z,100287.80
2023-02-06T05:07:26.101Z,100280.17
2023-02-06T05:09:53.900Z,100288.12
2023-02-06T05:12:21.801Z,100291.90
2023-02-06T05:14:49.948Z,100291.15
2023-02-06T05:17:19.856Z,100289.83
2023-02-06T05:19:47.781Z,100297.13
2023-02-06T05:22:15.939Z,100297.68
2023-02-06T05:24:43.912Z,100296.41
2023-02-06T05:27:12.039Z,100297.58
2023-02-06T05:29:40.115Z,100296.88
2023-02-06T05:33:10.004Z,100295.39
2023-02-06T05:35:38.809Z,100298.73
2023-02-06T05:38:07.028Z,100303.39
2023-02-06T05:40:35.196Z,100301.27
2023-02-06T05:43:03.385Z,100308.52
2023-02-06T05:45:31.314Z,100303.94
2023-02-06T05:47:59.426Z,100305.04
2023-02-06T05:50:27.357Z,100308.77
2023-02-06T05:52:55.549Z,100312.17
2023-02-06T05:55:23.533Z,100309.61
2023-02-06T05:57:51.376Z,100312.02
2023-02-06T06:00:20.094Z,100312.30
2023-02-06T06:02:47.906Z,100308.31
2023-02-06T06:05:15.891Z,100308.05
2023-02-06T06:07:43.878Z,100301.64
2023-02-06T06:10:11.752Z,100307.11
2023-02-06T06:12:40.655Z,100305.81
2023-02-06T06:15:09.344Z,100297.20
2023-02-06T06:17:38.808Z,100298.90
2023-02-06T06:20:06.888Z,100300.11
2023-02-06T06:22:35.050Z,100295.10
2023-02-06T06:25:05.074Z,100299.31
2023-02-06T06:27:33.789Z,100302.14
2023-02-06T06:30:01.754Z,100301.48
2023-02-06T06:32:30.019Z,100303.63
2023-02-06T06:34:58.003Z,100301.91
2023-02-06T06:37:26.044Z,100307.46
2023-02-06T06:39:53.939Z,100309.42
2023-02-06T06:42:21.847Z,100312.13
2023-02-06T06:44:49.754Z,100311.96
2023-02-06T06:47:17.743Z,100306.59
2023-02-06T06:49:45.585Z,100311.95
2023-02-06T06:52:24.548Z,100315.52
2023-02-06T06:54:53.599Z,100315.15
2023-02-06T06:57:22.017Z,100315.17
2023-02-06T06:59:49.986Z,100321.58
2023-02-06T07:02:18.104Z,100323.91
2023-02-06T07:04:46.087Z,100324.84
2023-02-06T07:07:14.159Z,100330.09
2023-02-06T07:09:42.179Z,100329.47
2023-02-06T07:12:13.402Z,100334.88
2023-02-06T07:14:41.887Z,100331.02
2023-02-06T07:17:09.929Z,100329.50
2023-02-06T07:19:37.936Z,100331.88
2023-02-06T07:22:06.325Z,100326.34
2023-02-06T07:24:35.720Z,100333.05
2023-02-06T07:27:04.185Z,100336.95
2023-02-06T07:29:32.628Z,100339.95
2023-02-06T07:32:00.586Z,100339.30
2023-02-06T07:34:29.120Z,100344.44
2023-02-06T07:36:57.279Z,100348.30
2023-02-06T07:39:25.836Z,100346.77
2023-02-06T07:41:53.657Z,100347.02
2023-02-06T07:44:21.776Z,100349.81
2023-02-06T07:46:49.664Z,100348.21
2023-02-06T07:49:17.852Z,100347.45
2023-02-06T07:51:46.228Z,100348.93
2023-02-06T07:54:14.259Z,100354.89
2023-02-06T07:56:42.757Z,100353.30
2023-02-06T07:59:10.661Z,100350.82
2023-02-06T08:01:38.697Z,100353.86
2023-02-06T08:04:06.745Z,100353.56
2023-02-06T08:06:36.020Z,100343.40
2023-02-06T08:09:05.835Z,100354.39
2023-02-06T08:11:36.032Z,100353.55
2023-02-06T08:14:04.608Z,100352.33
2023-02-06T08:16:32.825Z,100347.80
2023-02-06T08:19:00.732Z,100349.85
2023-02-06T08:21:28.740Z,100352.05
2023-02-06T08:23:57.735Z,100360.46
2023-02-06T08:26:27.123Z,100355.05
2023-02-06T08:28:55.452Z,100364.98
2023-02-06T08:31:28.603Z,100367.05
2023-02-06T08:33:57.151Z,100363.69
2023-02-06T08:36:25.405Z,100362.30
2023-02-06T08:38:53.603Z,100366.41
2023-02-06T08:41:27.539Z,100372.19
2023-02-06T08:43:57.243Z,100367.77
2023-02-06T08:46:27.027Z,100376.27
2023-02-06T08:49:10.876Z,100379.42
2023-02-06T08:51:39.165Z,100368.89
2023-02-06T08:54:08.985Z,100363.55
2023-02-06T08:56:37.776Z,100375.63
2023-02-06T08:59:06.474Z,100368.52
2023-02-06T09:01:37.034Z,100377.30
2023-02-06T09:04:09.549Z,100373.40
2023-02-06T09:06:40.954Z,100376.27
2023-02-06T09:09:09.233Z,100378.05
2023-02-06T09:11:37.372Z,100380.16
2023-02-06T09:14:06.084Z,100380.27
2023-02-06T09:16:34.389Z,100381.00
2023-02-06T09:19:03.535Z,100380.42
2023-02-06T09:21:33.120Z,100378.53
2023-02-06T09:24:02.734Z,100370.48
2023-02-06T09:26:44.838Z,100377.55
2023-02-06T09:29:18.565Z,100376.49
2023-02-06T09:31:47.866Z,100376.02
2023-02-06T09:34:15.990Z,100376.27
2023-02-06T09:36:44.246Z,100370.47
2023-02-06T09:39:12.278Z,100370.38
2023-02-06T09:41:43.298Z,100372.61
2023-02-06T09:44:27.230Z,100371.70
2023-02-06T09:47:13.108Z,100371.48
2023-02-06T09:49:48.202Z,100373.88
2023-02-06T09:52:34.984Z,100374.32
2023-02-06T09:55:05.766Z,100373.27
2023-02-06T09:57:43.686Z,100369.33
2023-02-06T10:00:32.804Z,100375.45
2023-02-06T10:03:17.905Z,100364.21
2023-02-06T10:06:01.396Z,100360.52
2023-02-06T10:09:04.877Z,100363.05
2023-02-06T10:11:57.701Z,100359.34
2023-02-06T10:14:32.666Z,100366.60
2023-02-06T10:17:06.526Z,100368.59
2023-02-06T10:19:34.706Z,100356.02
2023-02-06T10:22:12.818Z,100351.27
2023-02-06T10:24:50.530Z,100358.34
2023-02-06T10:27:18.514Z,100354.75
2023-02-06T10:29:47.673Z,100353.10
2023-02-06T10:32:22.733Z,100355.52
2023-02-06T10:35:33.467Z,100357.77
2023-02-06T10:38:44.865Z,100357.66
2023-02-06T10:41:37.996Z,100358.27
2023-02-06T10:44:17.463Z,100356.60
2023-02-06T10:46:48.420Z,100356.27
2023-02-06T10:49:34.283Z,100347.11
2023-02-06T10:52:09.462Z,100349.88
2023-02-06T10:54:43.361Z,100355.82
2023-02-06T10:57:14.616Z,100358.10
2023-02-06T10:59:54.055Z,100358.83
2023-02-06T11:02:48.902Z,100350.19
2023-02-06T11:05:21.621Z,100348.97
2023-02-06T11:07:52.390Z,100342.73
2023-02-06T11:10:22.052Z,100345.22
2023-02-06T11:12:52.069Z,100347.31
2023-02-06T11:15:58.668Z,100339.56
2023-02-06T11:18:39.268Z,100343.64
2023-02-06T11:21:09.078Z,100345.09
2023-02-06T11:23:37.034Z,100350.29
2023-02-06T11:26:10.590Z,100351.84
2023-02-06T11:28:49.346Z,100350.91
2023-02-06T11:31:18.852Z,100344.38
2023-02-06T11:33:54.403Z,100344.89
2023-02-06T11:36:36.484Z,100342.04
2023-02-06T11:39:22.324Z,100353.95
2023-02-06T11:42:18.530Z,100348.80
2023-02-06T11:44:50.694Z,100350.81
2023-02-06T11:47:31.210Z,100338.05
2023-02-06T11:50:36.729Z,100333.61
2023-02-06T11:53:14.996Z,100341.40
2023-02-06T11:55:43.159Z,100331.47
2023-02-06T11:58:14.220Z,100323.91
2023-02-06T12:01:06.515Z,100324.02
2023-02-06T12:03:40.242Z,100318.30
2023-02-06T12:06:13.664Z,100316.98
2023-02-06T12:08:52.660Z,100324.59
2023-02-06T12:11:26.460Z,100324.73
2023-02-06T12:14:01.414Z,100334.63
2023-02-06T12:16:29.512Z,100325.55
2023-02-06T12:18:57.778Z,100329.14
2023-02-06T12:21:28.400Z,100329.34
2023-02-06T12:23:58.528Z,100326.80
2023-02-06T12:26:29.270Z,100318.17
2023-02-06T12:29:09.754Z,100321.38
2023-02-06T12:31:38.935Z,100325.71
2023-02-06T12:34:19.752Z,100332.49
2023-02-06T12:37:10.789Z,100339.85
2023-02-06T12:39:38.697Z,100336.45
2023-02-06T12:42:12.224Z,100337.98
2023-02-06T12:44:43.262Z,100334.50
2023-02-06T12:47:23.770Z,100325.20
2023-02-06T12:50:22.700Z,100331.80
2023-02-06T12:53:03.327Z,100322.80
2023-02-06T12:55:34.516Z,100318.83
2023-02-06T12:58:02.926Z,100312.96
2023-02-06T13:00:37.954Z,100318.80
2023-02-06T16:52:05.488Z,100389.38
2023-02-06T16:54:34.027Z,100392.11
2023-02-06T16:57:11.514Z,100390.81
2023-02-06T16:59:38.393Z,100390.31
2023-02-06T17:02:13.286Z,100391.31
2023-02-06T17:04:40.878Z,100396.01
2023-02-06T17:07:12.691Z,100393.14
2023-02-06T17:09:39.742Z,100396.45
2023-02-06T17:12:10.352Z,100396.89
2023-02-06T17:14:37.025Z,100401.06
2023-02-06T17:17:03.688Z,100396.38
2023-02-06T17:19:30.401Z,100393.50
2023-02-06T17:21:57.255Z,100391.33
2023-02-06T17:24:24.212Z,100392.35
2023-02-06T17:26:50.935Z,100383.34
2023-02-06T17:29:17.590Z,100392.05
2023-02-06T17:31:44.432Z,100395.84
2023-02-06T17:34:11.667Z,100396.63
2023-02-06T17:36:39.016Z,100392.93
2023-02-06T17:39:06.783Z,100391.16
2023-02-06T17:41:35.163Z,100387.95
2023-02-06T17:44:03.547Z,100385.45
2023-02-06T17:46:30.722Z,100387.54
2023-02-06T17:48:57.338Z,100384.67
2023-02-06T17:51:24.484Z,100379.80
2023-02-06T17:53:51.529Z,100384.20
2023-02-06T17:56:18.664Z,100385.52
2023-02-06T17:58:45.239Z,100383.27
2023-02-06T18:01:13.026Z,100383.96
2023-02-06T18:03:40.595Z,100389.19
2023-02-06T18:06:07.658Z,100396.41
2023-02-06T18:08:34.330Z,100393.57
2023-02-06T18:11:09.022Z,100393.40
2023-02-06T18:13:35.894Z,100395.61
2023-02-06T18:16:06.654Z,100395.94
2023-02-06T18:18:34.070Z,100398.06
2023-02-06T18:21:00.934Z,100399.23
2023-02-06T18:23:29.002Z,100392.26
2023-02-06T18:26:02.530Z,100397.71
2023-02-06T18:28:30.738Z,100399.23
2023-02-06T18:30:57.683Z,100398.65
2023-02-06T18:33:24.698Z,100400.49
2023-02-06T18:35:51.276Z,100406.55
2023-02-06T18:38:18.274Z,100406.91
2023-02-06T18:40:47.239Z,100410.92
2023-02-06T18:43:14.284Z,100406.95
2023-02-06T18:45:41.432Z,100405.35
2023-02-06T18:48:10.269Z,100411.21
2023-02-06T18:50:40.718Z,100412.39
2023-02-06T18:53:07.909Z,100411.61
2023-02-06T18:55:34.937Z,100415.58
2023-02-06T18:58:02.092Z,100410.44
2023-02-06T19:00:29.986Z,100416.88
2023-02-06T19:02:57.884Z,100424.10
2023-02-06T19:05:24.669Z,100421.59
2023-02-06T19:07:53.082Z,100421.02
2023-02-06T19:10:20.592Z,100422.67
2023-02-06T19:12:48.410Z,100420.77
2023-02-06T19:15:15.634Z,100420.23
2023-02-06T19:17:42.573Z,100414.52
2023-02-06T19:20:12.873Z,100411.30
2023-02-06T19:22:40.975Z,100408.42
2023-02-06T19:25:10.888Z,100409.90
2023-02-06T19:27:38.645Z,100410.51
2023-02-06T19:30:07.659Z,100412.57
2023-02-06T19:32:34.519Z,100415.27
2023-02-06T19:35:02.352Z,100413.10
2023-02-06T19:37:32.060Z,100408.65
2023-02-06T19:39:59.924Z,100404.15
2023-02-06T19:42:26.970Z,100398.16
2023-02-06T19:44:56.828Z,100395.66
2023-02-06T19:47:26.212Z,100388.23
2023-02-06T19:49:56.285Z,100385.50
2023-02-06T19:52:22.891Z,100389.30
2023-02-06T19:54:49.783Z,100384.88
2023-02-06T19:57:18.978Z,100384.43
2023-02-06T19:59:45.820Z,100388.48
2023-02-06T20:02:16.459Z,100388.89
2023-02-06T20:04:45.752Z,100385.73
2023-02-06T20:07:12.598Z,100380.44
2023-02-06T20:09:41.592Z,100387.19
2023-02-06T20:12:13.227Z,100383.84
2023-02-06T20:14:41.829Z,100383.17
2023-02-06T20:17:09.804Z,100379.41
2023-02-06T20:19:36.761Z,100384.64
2023-02-06T20:22:04.203Z,100379.48
2023-02-06T20:24:31.429Z,100386.40
2023-02-06T20:27:00.033Z,100388.16
2023-02-06T20:29:32.124Z,100387.58
2023-02-06T20:31:59.054Z,100388.36
2023-02-06T20:34:26.572Z,100386.18
2023-02-06T20:36:53.863Z,100379.29
2023-02-06T20:39:22.699Z,100375.69
2023-02-06T20:41:50.312Z,100379.16
2023-02-06T20:44:17.565Z,100377.73
2023-02-06T20:46:44.409Z,100370.54
2023-02-06T20:49:14.566Z,100369.17
2023-02-06T20:51:41.165Z,100369.80
2023-02-06T20:54:08.210Z,100365.98
2023-02-06T20:56:35.251Z,100366.46
2023-02-06T20:59:03.016Z,100370.27
2023-02-06T21:01:30.679Z,100369.66
2023-02-06T21:04:03.335Z,100370.34
2023-02-06T21:06:30.569Z,100370.17
2023-02-06T21:09:00.742Z,100371.30
2023-02-06T21:11:32.354Z,100369.63
2023-02-06T21:14:00.563Z,100369.90
2023-02-06T21:16:27.712Z,100370.96
2023-02-06T21:18:55.278Z,100371.46
2023-02-06T21:21:22.825Z,100366.63
2023-02-06T21:23:49.919Z,100365.52
2023-02-06T21:26:17.638Z,100364.40
2023-02-06T21:28:45.503Z,100366.05
2023-02-06T21:31:14.781Z,100369.05
2023-02-06T21:33:41.426Z,100368.17
2023-02-06T21:36:08.363Z,100367.56
2023-02-06T21:38:35.129Z,100365.38
2023-02-06T21:41:10.135Z,100362.61
2023-02-06T21:43:36.679Z,100362.52
2023-02-06T21:46:03.909Z,100359.73
2023-02-06T21:48:30.735Z,100358.41
2023-02-06T21:50:57.420Z,100358.66
2023-02-06T21:53:24.188Z,100355.73
2023-02-06T21:55:50.828Z,100352.37
2023-02-06T21:58:17.629Z,100347.91
2023-02-06T22:00:45.826Z,100340.36
2023-02-06T22:03:13.196Z,100336.29
